sensor_id;sensor_type;location;lat;lon;timestamp;temperature;humidity
21169;DHT22;10742;51.816;8.662;2023-10-31T00:00:12;17.50;99.90
21169;DHT22;10742;51.816;8.662;2023-10-31T00:03:16;17.50;99.90
21169;DHT22;10742;51.816;8.662;2023-10-31T00:06:19;17.50;99.90
21169;DHT22;10742;51.816;8.662;2023-10-31T00:09:23;17.50;99.90
21169;DHT22;10742;51.816;8.662;2023-10-31T00:12:27;17.50;99.90
21169;DHT22;10742;51.816;8.662;2023-10-31T00:15:30;17.50;99.90
21169;DHT22;10742;51.816;8.662;2023-10-31T00:18:34;17.50;99.90
21169;DHT22;10742;51.816;8.662;2023-10-31T00:21:38;17.40;99.90
21169;DHT22;10742;51.816;8.662;2023-10-31T00:24:42;17.50;99.90
21169;DHT22;10742;51.816;8.662;2023-10-31T00:27:46;17.50;99.90
21169;DHT22;10742;51.816;8.662;2023-10-31T00:30:50;17.50;99.90
21169;DHT22;10742;51.816;8.662;2023-10-31T00:33:54;17.50;99.90
21169;DHT22;10742;51.816;8.662;2023-10-31T00:36:58;17.50;99.90
21169;DHT22;10742;51.816;8.662;2023-10-31T00:40:01;17.50;99.90
21169;DHT22;10742;51.816;8.662;2023-10-31T00:43:06;17.50;99.90
21169;DHT22;10742;51.816;8.662;2023-10-31T00:46:10;17.50;99.90
21169;DHT22;10742;51.816;8.662;2023-10-31T00:49:13;17.50;99.90
21169;DHT22;10742;51.816;8.662;2023-10-31T00:52:17;17.50;99.90
21169;DHT22;10742;51.816;8.662;2023-10-31T00:55:21;17.50;99.90
21169;DHT22;10742;51.816;8.662;2023-10-31T00:58:24;17.50;99.90
21169;DHT22;10742;51.816;8.662;2023-10-31T01:01:28;17.50;99.90
21169;DHT22;10742;51.816;8.662;2023-10-31T01:04:32;17.50;99.90
21169;DHT22;10742;51.816;8.662;2023-10-31T01:07:35;17.50;99.90
21169;DHT22;10742;51.816;8.662;2023-10-31T01:10:39;17.50;99.90
21169;DHT22;10742;51.816;8.662;2023-10-31T01:13:43;17.40;99.90
21169;DHT22;10742;51.816;8.662;2023-10-31T01:16:46;17.40;99.90
21169;DHT22;10742;51.816;8.662;2023-10-31T01:19:50;17.40;99.90
21169;DHT22;10742;51.816;8.662;2023-10-31T01:22:54;17.40;99.90
21169;DHT22;10742;51.816;8.662;2023-10-31T01:25:57;17.40;99.90
21169;DHT22;10742;51.816;8.662;2023-10-31T01:29:01;17.40;99.90
21169;DHT22;10742;51.816;8.662;2023-10-31T01:32:05;17.40;99.90
21169;DHT22;10742;51.816;8.662;2023-10-31T01:35:08;17.40;99.90
21169;DHT22;10742;51.816;8.662;2023-10-31T01:38:12;17.40;99.90
21169;DHT22;10742;51.816;8.662;2023-10-31T01:41:16;17.40;99.90
21169;DHT22;10742;51.816;8.662;2023-10-31T01:44:19;17.40;99.90
21169;DHT22;10742;51.816;8.662;2023-10-31T01:47:23;17.40;99.90
21169;DHT22;10742;51.816;8.662;2023-10-31T01:50:27;17.40;99.90
21169;DHT22;10742;51.816;8.662;2023-10-31T01:53:32;17.40;99.90
21169;DHT22;10742;51.816;8.662;2023-10-31T01:56:37;17.30;99.90
21169;DHT22;10742;51.816;8.662;2023-10-31T01:59:40;17.20;99.90
21169;DHT22;10742;51.816;8.662;2023-10-31T02:02:45;17.20;99.90
21169;DHT22;10742;51.816;8.662;2023-10-31T02:05:51;17.10;99.90
21169;DHT22;10742;51.816;8.662;2023-10-31T02:08:54;16.90;99.90
21169;DHT22;10742;51.816;8.662;2023-10-31T02:11:59;16.90;99.90
21169;DHT22;10742;51.816;8.662;2023-10-31T02:15:03;16.80;99.90
21169;DHT22;10742;51.816;8.662;2023-10-31T02:18:08;16.70;99.90
21169;DHT22;10742;51.816;8.662;2023-10-31T02:21:13;16.60;99.90
21169;DHT22;10742;51.816;8.662;2023-10-31T02:24:16;16.50;99.90
21169;DHT22;10742;51.816;8.662;2023-10-31T02:27:19;16.40;99.90
21169;DHT22;10742;51.816;8.662;2023-10-31T02:30:24;16.40;99.90
21169;DHT22;10742;51.816;8.662;2023-10-31T02:33:27;16.30;99.90
21169;DHT22;10742;51.816;8.662;2023-10-31T02:36:30;16.30;99.90
21169;DHT22;10742;51.816;8.662;2023-10-31T02:39:35;16.20;99.90
21169;DHT22;10742;51.816;8.662;2023-10-31T02:42:39;16.20;99.90
21169;DHT22;10742;51.816;8.662;2023-10-31T02:45:42;16.20;99.90
21169;DHT22;10742;51.816;8.662;2023-10-31T02:48:45;16.10;99.80
21169;DHT22;10742;51.816;8.662;2023-10-31T02:51:50;16.00;99.80
21169;DHT22;10742;51.816;8.662;2023-10-31T02:54:52;16.00;99.80
21169;DHT22;10742;51.816;8.662;2023-10-31T02:57:56;16.00;99.80
21169;DHT22;10742;51.816;8.662;2023-10-31T03:01:00;16.00;99.80
21169;DHT22;10742;51.816;8.662;2023-10-31T03:04:04;15.90;99.80
21169;DHT22;10742;51.816;8.662;2023-10-31T03:07:07;15.90;99.80
21169;DHT22;10742;51.816;8.662;2023-10-31T03:10:11;15.90;99.70
21169;DHT22;10742;51.816;8.662;2023-10-31T03:13:14;15.80;99.70
21169;DHT22;10742;51.816;8.662;2023-10-31T03:16:19;15.80;99.70
21169;DHT22;10742;51.816;8.662;2023-10-31T03:19:23;15.80;99.70
21169;DHT22;10742;51.816;8.662;2023-10-31T03:22:26;15.80;99.60
21169;DHT22;10742;51.816;8.662;2023-10-31T03:25:30;15.70;99.50
21169;DHT22;10742;51.816;8.662;2023-10-31T03:28:34;15.70;99.50
21169;DHT22;10742;51.816;8.662;2023-10-31T03:31:38;15.70;99.50
21169;DHT22;10742;51.816;8.662;2023-10-31T03:34:41;15.70;99.50
21169;DHT22;10742;51.816;8.662;2023-10-31T03:37:45;15.60;99.50
21169;DHT22;10742;51.816;8.662;2023-10-31T03:40:48;15.60;99.50
21169;DHT22;10742;51.816;8.662;2023-10-31T03:43:52;15.60;99.50
21169;DHT22;10742;51.816;8.662;2023-10-31T03:46:56;15.60;99.50
21169;DHT22;10742;51.816;8.662;2023-10-31T03:50:00;15.50;99.40
21169;DHT22;10742;51.816;8.662;2023-10-31T03:53:04;15.50;99.40
21169;DHT22;10742;51.816;8.662;2023-10-31T03:56:08;15.50;99.30
21169;DHT22;10742;51.816;8.662;2023-10-31T03:59:12;15.40;99.30
21169;DHT22;10742;51.816;8.662;2023-10-31T04:02:16;15.40;99.40
21169;DHT22;10742;51.816;8.662;2023-10-31T04:05:19;15.40;99.40
21169;DHT22;10742;51.816;8.662;2023-10-31T04:08:23;15.40;99.50
21169;DHT22;10742;51.816;8.662;2023-10-31T04:11:27;15.30;99.40
21169;DHT22;10742;51.816;8.662;2023-10-31T04:14:30;15.30;99.50
21169;DHT22;10742;51.816;8.662;2023-10-31T04:17:35;15.30;99.50
21169;DHT22;10742;51.816;8.662;2023-10-31T04:20:38;15.30;99.50
21169;DHT22;10742;51.816;8.662;2023-10-31T04:23:41;15.30;99.50
21169;DHT22;10742;51.816;8.662;2023-10-31T04:26:45;15.30;99.50
21169;DHT22;10742;51.816;8.662;2023-10-31T04:29:49;15.30;99.50
21169;DHT22;10742;51.816;8.662;2023-10-31T04:32:52;15.30;99.60
21169;DHT22;10742;51.816;8.662;2023-10-31T04:35:57;15.30;99.60
21169;DHT22;10742;51.816;8.662;2023-10-31T04:39:02;15.30;99.70
21169;DHT22;10742;51.816;8.662;2023-10-31T04:42:05;15.30;99.70
21169;DHT22;10742;51.816;8.662;2023-10-31T04:45:10;15.30;99.70
21169;DHT22;10742;51.816;8.662;2023-10-31T04:48:13;15.30;99.80
21169;DHT22;10742;51.816;8.662;2023-10-31T04:51:19;15.30;99.80
21169;DHT22;10742;51.816;8.662;2023-10-31T04:54:23;15.30;99.80
21169;DHT22;10742;51.816;8.662;2023-10-31T04:57:27;15.30;99.80
21169;DHT22;10742;51.816;8.662;2023-10-31T05:00:30;15.30;99.70
21169;DHT22;10742;51.816;8.662;2023-10-31T05:03:34;15.30;99.70
21169;DHT22;10742;51.816;8.662;2023-10-31T05:06:38;15.30;99.70
21169;DHT22;10742;51.816;8.662;2023-10-31T05:09:41;15.30;99.80
21169;DHT22;10742;51.816;8.662;2023-10-31T05:12:46;15.30;99.80
21169;DHT22;10742;51.816;8.662;2023-10-31T05:15:51;15.30;99.80
21169;DHT22;10742;51.816;8.662;2023-10-31T05:18:54;15.30;99.80
21169;DHT22;10742;51.816;8.662;2023-10-31T05:21:58;15.30;99.80
21169;DHT22;10742;51.816;8.662;2023-10-31T05:25:03;15.30;99.80
21169;DHT22;10742;51.816;8.662;2023-10-31T05:28:05;15.30;99.90
21169;DHT22;10742;51.816;8.662;2023-10-31T05:31:09;15.30;99.90
21169;DHT22;10742;51.816;8.662;2023-10-31T05:34:12;15.20;99.90
21169;DHT22;10742;51.816;8.662;2023-10-31T05:37:15;15.20;99.90
21169;DHT22;10742;51.816;8.662;2023-10-31T05:40:19;15.20;99.90
21169;DHT22;10742;51.816;8.662;2023-10-31T05:43:25;15.30;99.90
21169;DHT22;10742;51.816;8.662;2023-10-31T05:46:28;15.30;99.90
21169;DHT22;10742;51.816;8.662;2023-10-31T05:49:32;15.30;99.90
21169;DHT22;10742;51.816;8.662;2023-10-31T05:52:36;15.40;99.90
21169;DHT22;10742;51.816;8.662;2023-10-31T05:55:39;15.40;99.90
21169;DHT22;10742;51.816;8.662;2023-10-31T05:58:43;15.40;99.90
21169;DHT22;10742;51.816;8.662;2023-10-31T06:01:47;15.40;99.90
21169;DHT22;10742;51.816;8.662;2023-10-31T06:04:54;15.30;99.90
21169;DHT22;10742;51.816;8.662;2023-10-31T06:07:57;15.30;99.90
21169;DHT22;10742;51.816;8.662;2023-10-31T06:11:03;15.30;99.90
21169;DHT22;10742;51.816;8.662;2023-10-31T06:14:06;15.30;99.90
21169;DHT22;10742;51.816;8.662;2023-10-31T06:17:10;15.30;99.90
21169;DHT22;10742;51.816;8.662;2023-10-31T06:20:14;15.30;99.90
21169;DHT22;10742;51.816;8.662;2023-10-31T06:23:19;15.20;99.90
21169;DHT22;10742;51.816;8.662;2023-10-31T06:26:22;15.20;99.90
21169;DHT22;10742;51.816;8.662;2023-10-31T06:29:25;15.20;99.90
21169;DHT22;10742;51.816;8.662;2023-10-31T06:32:36;15.20;99.90
21169;DHT22;10742;51.816;8.662;2023-10-31T06:35:40;15.20;99.90
21169;DHT22;10742;51.816;8.662;2023-10-31T06:38:43;15.30;99.90
21169;DHT22;10742;51.816;8.662;2023-10-31T06:41:48;15.30;99.90
21169;DHT22;10742;51.816;8.662;2023-10-31T06:44:51;15.30;99.90
21169;DHT22;10742;51.816;8.662;2023-10-31T06:47:54;15.30;99.90
21169;DHT22;10742;51.816;8.662;2023-10-31T06:50:59;15.30;99.90
21169;DHT22;10742;51.816;8.662;2023-10-31T06:54:03;15.30;99.90
21169;DHT22;10742;51.816;8.662;2023-10-31T06:57:06;15.30;99.90
21169;DHT22;10742;51.816;8.662;2023-10-31T07:00:11;15.30;99.90
21169;DHT22;10742;51.816;8.662;2023-10-31T07:03:15;15.40;99.90
21169;DHT22;10742;51.816;8.662;2023-10-31T07:06:18;15.40;99.90
21169;DHT22;10742;51.816;8.662;2023-10-31T07:09:26;15.40;99.90
21169;DHT22;10742;51.816;8.662;2023-10-31T07:12:29;15.50;99.90
21169;DHT22;10742;51.816;8.662;2023-10-31T07:15:32;15.50;99.90
21169;DHT22;10742;51.816;8.662;2023-10-31T07:18:41;15.50;99.90
21169;DHT22;10742;51.816;8.662;2023-10-31T07:21:45;15.60;99.90
21169;DHT22;10742;51.816;8.662;2023-10-31T07:24:48;15.60;99.90
21169;DHT22;10742;51.816;8.662;2023-10-31T07:27:52;15.70;99.90
21169;DHT22;10742;51.816;8.662;2023-10-31T07:30:56;15.70;99.90
21169;DHT22;10742;51.816;8.662;2023-10-31T07:33:59;15.70;99.90
21169;DHT22;10742;51.816;8.662;2023-10-31T07:37:04;15.70;99.90
21169;DHT22;10742;51.816;8.662;2023-10-31T07:40:08;15.70;99.90
21169;DHT22;10742;51.816;8.662;2023-10-31T07:43:10;15.70;99.90
21169;DHT22;10742;51.816;8.662;2023-10-31T07:46:15;15.70;99.90
21169;DHT22;10742;51.816;8.662;2023-10-31T07:49:18;15.70;99.90
21169;DHT22;10742;51.816;8.662;2023-10-31T07:52:22;15.70;99.90
21169;DHT22;10742;51.816;8.662;2023-10-31T07:55:26;15.60;99.90
21169;DHT22;10742;51.816;8.662;2023-10-31T07:58:30;15.70;99.90
21169;DHT22;10742;51.816;8.662;2023-10-31T08:01:35;15.60;99.90
21169;DHT22;10742;51.816;8.662;2023-10-31T08:04:38;15.60;99.90
21169;DHT22;10742;51.816;8.662;2023-10-31T08:07:43;15.60;99.90
21169;DHT22;10742;51.816;8.662;2023-10-31T08:10:46;15.60;99.90
21169;DHT22;10742;51.816;8.662;2023-10-31T08:13:53;15.60;99.90
21169;DHT22;10742;51.816;8.662;2023-10-31T08:16:56;15.50;99.90
21169;DHT22;10742;51.816;8.662;2023-10-31T08:20:20;15.50;99.90
21169;DHT22;10742;51.816;8.662;2023-10-31T08:23:42;15.40;99.90
21169;DHT22;10742;51.816;8.662;2023-10-31T08:27:06;15.40;99.90
21169;DHT22;10742;51.816;8.662;2023-10-31T08:30:27;15.40;99.90
21169;DHT22;10742;51.816;8.662;2023-10-31T08:33:49;15.30;99.90
21169;DHT22;10742;51.816;8.662;2023-10-31T08:37:12;15.40;99.90
21169;DHT22;10742;51.816;8.662;2023-10-31T08:40:34;15.30;99.90
21169;DHT22;10742;51.816;8.662;2023-10-31T08:43:56;15.30;99.90
21169;DHT22;10742;51.816;8.662;2023-10-31T08:47:20;15.30;99.90
21169;DHT22;10742;51.816;8.662;2023-10-31T08:50:42;15.40;99.90
21169;DHT22;10742;51.816;8.662;2023-10-31T08:54:05;15.40;99.90
21169;DHT22;10742;51.816;8.662;2023-10-31T08:57:29;15.40;99.90
21169;DHT22;10742;51.816;8.662;2023-10-31T09:00:51;15.50;99.90
21169;DHT22;10742;51.816;8.662;2023-10-31T09:04:15;15.50;99.90
21169;DHT22;10742;51.816;8.662;2023-10-31T09:07:36;15.50;99.90
21169;DHT22;10742;51.816;8.662;2023-10-31T09:10:58;15.60;99.90
21169;DHT22;10742;51.816;8.662;2023-10-31T09:14:22;15.60;99.90
21169;DHT22;10742;51.816;8.662;2023-10-31T09:17:45;15.70;99.90
21169;DHT22;10742;51.816;8.662;2023-10-31T09:21:09;15.70;99.90
21169;DHT22;10742;51.816;8.662;2023-10-31T09:24:31;15.70;99.90
21169;DHT22;10742;51.816;8.662;2023-10-31T09:27:53;15.70;99.90
21169;DHT22;10742;51.816;8.662;2023-10-31T09:31:17;15.80;99.90
21169;DHT22;10742;51.816;8.662;2023-10-31T09:34:39;15.80;99.90
21169;DHT22;10742;51.816;8.662;2023-10-31T09:38:01;15.80;99.90
21169;DHT22;10742;51.816;8.662;2023-10-31T09:41:24;15.80;99.90
21169;DHT22;10742;51.816;8.662;2023-10-31T09:44:47;15.80;99.90
21169;DHT22;10742;51.816;8.662;2023-10-31T09:48:09;15.80;99.90
21169;DHT22;10742;51.816;8.662;2023-10-31T09:51:32;15.80;99.90
21169;DHT22;10742;51.816;8.662;2023-10-31T09:54:54;15.80;99.90
21169;DHT22;10742;51.816;8.662;2023-10-31T09:58:16;15.90;99.90
21169;DHT22;10742;51.816;8.662;2023-10-31T10:01:39;15.90;99.90
21169;DHT22;10742;51.816;8.662;2023-10-31T10:05:02;15.90;99.90
21169;DHT22;10742;51.816;8.662;2023-10-31T10:08:24;16.00;99.90
21169;DHT22;10742;51.816;8.662;2023-10-31T10:11:46;16.00;99.90
21169;DHT22;10742;51.816;8.662;2023-10-31T10:15:11;16.10;99.80
21169;DHT22;10742;51.816;8.662;2023-10-31T10:18:29;16.10;99.80
21169;DHT22;10742;51.816;8.662;2023-10-31T10:21:46;16.10;99.60
21169;DHT22;10742;51.816;8.662;2023-10-31T10:24:50;16.10;99.60
21169;DHT22;10742;51.816;8.662;2023-10-31T10:27:54;16.10;99.70
21169;DHT22;10742;51.816;8.662;2023-10-31T10:30:57;16.10;99.70
21169;DHT22;10742;51.816;8.662;2023-10-31T10:34:01;16.10;99.80
21169;DHT22;10742;51.816;8.662;2023-10-31T10:37:05;16.20;99.90
21169;DHT22;10742;51.816;8.662;2023-10-31T10:40:10;16.20;99.90
21169;DHT22;10742;51.816;8.662;2023-10-31T10:43:20;16.30;99.90
21169;DHT22;10742;51.816;8.662;2023-10-31T10:46:25;16.30;99.90
21169;DHT22;10742;51.816;8.662;2023-10-31T10:49:33;16.40;99.90
21169;DHT22;10742;51.816;8.662;2023-10-31T10:52:42;16.40;99.90
21169;DHT22;10742;51.816;8.662;2023-10-31T10:55:57;16.50;99.90
21169;DHT22;10742;51.816;8.662;2023-10-31T10:59:17;16.60;99.90
21169;DHT22;10742;51.816;8.662;2023-10-31T11:02:22;16.60;99.90
21169;DHT22;10742;51.816;8.662;2023-10-31T11:05:26;16.60;99.90
21169;DHT22;10742;51.816;8.662;2023-10-31T11:08:29;16.60;99.90
21169;DHT22;10742;51.816;8.662;2023-10-31T11:11:34;16.70;99.90
21169;DHT22;10742;51.816;8.662;2023-10-31T11:14:38;16.70;99.90
21169;DHT22;10742;51.816;8.662;2023-10-31T11:17:44;16.70;99.90
21169;DHT22;10742;51.816;8.662;2023-10-31T11:20:48;16.70;99.90
21169;DHT22;10742;51.816;8.662;2023-10-31T11:23:59;16.70;99.90
21169;DHT22;10742;51.816;8.662;2023-10-31T11:27:06;16.70;99.70
21169;DHT22;10742;51.816;8.662;2023-10-31T11:30:33;16.80;99.80
21169;DHT22;10742;51.816;8.662;2023-10-31T11:33:39;16.70;99.80
21169;DHT22;10742;51.816;8.662;2023-10-31T11:36:44;16.80;99.80
21169;DHT22;10742;51.816;8.662;2023-10-31T11:43:21;16.80;99.70
21169;DHT22;10742;51.816;8.662;2023-10-31T11:46:24;16.70;99.70
21169;DHT22;10742;51.816;8.662;2023-10-31T11:49:46;16.70;99.80
21169;DHT22;10742;51.816;8.662;2023-10-31T11:53:04;16.70;99.90
21169;DHT22;10742;51.816;8.662;2023-10-31T11:56:10;16.80;99.80
21169;DHT22;10742;51.816;8.662;2023-10-31T11:59:15;16.70;99.70
21169;DHT22;10742;51.816;8.662;2023-10-31T12:02:19;16.80;99.80
21169;DHT22;10742;51.816;8.662;2023-10-31T12:05:24;16.70;99.70
21169;DHT22;10742;51.816;8.662;2023-10-31T12:08:32;16.70;99.70
21169;DHT22;10742;51.816;8.662;2023-10-31T12:11:44;16.70;99.50
21169;DHT22;10742;51.816;8.662;2023-10-31T12:14:49;16.70;99.40
21169;DHT22;10742;51.816;8.662;2023-10-31T12:17:58;16.70;99.40
21169;DHT22;10742;51.816;8.662;2023-10-31T12:21:02;16.70;99.40
21169;DHT22;10742;51.816;8.662;2023-10-31T12:24:09;16.60;99.50
21169;DHT22;10742;51.816;8.662;2023-10-31T12:27:13;16.60;99.40
21169;DHT22;10742;51.816;8.662;2023-10-31T12:30:21;16.60;99.50
21169;DHT22;10742;51.816;8.662;2023-10-31T12:33:27;16.60;99.50
21169;DHT22;10742;51.816;8.662;2023-10-31T12:36:31;16.60;99.40
21169;DHT22;10742;51.816;8.662;2023-10-31T12:39:35;16.60;99.40
21169;DHT22;10742;51.816;8.662;2023-10-31T12:42:39;16.60;99.30
21169;DHT22;10742;51.816;8.662;2023-10-31T12:45:43;16.60;99.40
21169;DHT22;10742;51.816;8.662;2023-10-31T12:48:47;16.60;99.50
21169;DHT22;10742;51.816;8.662;2023-10-31T12:51:58;16.60;99.30
21169;DHT22;10742;51.816;8.662;2023-10-31T12:55:15;16.50;99.20
21169;DHT22;10742;51.816;8.662;2023-10-31T12:58:22;16.50;99.30
21169;DHT22;10742;51.816;8.662;2023-10-31T13:01:27;16.50;99.20
21169;DHT22;10742;51.816;8.662;2023-10-31T13:04:31;16.50;99.30
21169;DHT22;10742;51.816;8.662;2023-10-31T13:07:35;16.50;99.30
21169;DHT22;10742;51.816;8.662;2023-10-31T13:10:39;16.50;99.30
21169;DHT22;10742;51.816;8.662;2023-10-31T13:13:43;16.50;99.40
21169;DHT22;10742;51.816;8.662;2023-10-31T13:16:47;16.50;99.40
21169;DHT22;10742;51.816;8.662;2023-10-31T13:19:51;16.50;99.50
21169;DHT22;10742;51.816;8.662;2023-10-31T13:22:55;16.50;99.50
21169;DHT22;10742;51.816;8.662;2023-10-31T13:26:00;16.50;99.50
21169;DHT22;10742;51.816;8.662;2023-10-31T13:29:03;16.50;99.50
21169;DHT22;10742;51.816;8.662;2023-10-31T13:32:07;16.50;99.90
21169;DHT22;10742;51.816;8.662;2023-10-31T13:35:12;16.50;99.60
21169;DHT22;10742;51.816;8.662;2023-10-31T13:38:17;16.50;99.60
21169;DHT22;10742;51.816;8.662;2023-10-31T13:41:22;16.50;99.70
21169;DHT22;10742;51.816;8.662;2023-10-31T13:44:26;16.50;99.70
21169;DHT22;10742;51.816;8.662;2023-10-31T13:47:29;16.50;99.70
21169;DHT22;10742;51.816;8.662;2023-10-31T13:50:34;16.60;99.70
21169;DHT22;10742;51.816;8.662;2023-10-31T13:53:38;16.50;99.70
21169;DHT22;10742;51.816;8.662;2023-10-31T13:56:41;16.50;99.60
21169;DHT22;10742;51.816;8.662;2023-10-31T13:59:45;16.50;99.60
21169;DHT22;10742;51.816;8.662;2023-10-31T14:02:49;16.50;99.70
21169;DHT22;10742;51.816;8.662;2023-10-31T14:05:52;16.50;99.70
21169;DHT22;10742;51.816;8.662;2023-10-31T14:08:57;16.60;99.70
21169;DHT22;10742;51.816;8.662;2023-10-31T14:12:01;16.60;99.70
21169;DHT22;10742;51.816;8.662;2023-10-31T14:15:04;16.60;99.70
21169;DHT22;10742;51.816;8.662;2023-10-31T14:18:08;16.60;99.70
21169;DHT22;10742;51.816;8.662;2023-10-31T14:21:13;16.60;99.70
21169;DHT22;10742;51.816;8.662;2023-10-31T14:24:17;16.60;99.70
21169;DHT22;10742;51.816;8.662;2023-10-31T14:27:21;16.60;99.60
21169;DHT22;10742;51.816;8.662;2023-10-31T14:30:25;16.70;99.90
21169;DHT22;10742;51.816;8.662;2023-10-31T14:33:28;16.70;99.60
21169;DHT22;10742;51.816;8.662;2023-10-31T14:36:33;16.70;99.70
21169;DHT22;10742;51.816;8.662;2023-10-31T14:39:37;16.70;99.60
21169;DHT22;10742;51.816;8.662;2023-10-31T14:42:40;16.80;99.60
21169;DHT22;10742;51.816;8.662;2023-10-31T14:45:44;16.80;99.50
21169;DHT22;10742;51.816;8.662;2023-10-31T14:48:48;16.80;99.40
21169;DHT22;10742;51.816;8.662;2023-10-31T14:51:51;16.90;99.40
21169;DHT22;10742;51.816;8.662;2023-10-31T14:54:54;16.90;99.30
21169;DHT22;10742;51.816;8.662;2023-10-31T14:57:58;16.90;99.10
21169;DHT22;10742;51.816;8.662;2023-10-31T15:01:02;16.90;99.00
21169;DHT22;10742;51.816;8.662;2023-10-31T15:04:08;16.90;99.00
21169;DHT22;10742;51.816;8.662;2023-10-31T15:07:12;16.90;99.00
21169;DHT22;10742;51.816;8.662;2023-10-31T15:10:16;16.90;98.90
21169;DHT22;10742;51.816;8.662;2023-10-31T15:13:20;16.90;98.90
21169;DHT22;10742;51.816;8.662;2023-10-31T15:16:23;16.90;98.80
21169;DHT22;10742;51.816;8.662;2023-10-31T15:19:27;16.90;98.80
21169;DHT22;10742;51.816;8.662;2023-10-31T15:22:31;16.90;98.80
21169;DHT22;10742;51.816;8.662;2023-10-31T15:25:35;16.90;98.60
21169;DHT22;10742;51.816;8.662;2023-10-31T15:28:42;16.90;98.60
21169;DHT22;10742;51.816;8.662;2023-10-31T15:31:47;16.90;98.50
21169;DHT22;10742;51.816;8.662;2023-10-31T15:34:52;16.90;98.50
21169;DHT22;10742;51.816;8.662;2023-10-31T15:37:56;16.90;98.50
21169;DHT22;10742;51.816;8.662;2023-10-31T15:41:00;16.90;98.50
21169;DHT22;10742;51.816;8.662;2023-10-31T15:44:05;16.90;98.40
21169;DHT22;10742;51.816;8.662;2023-10-31T15:47:09;16.90;98.80
21169;DHT22;10742;51.816;8.662;2023-10-31T15:50:13;16.80;98.40
21169;DHT22;10742;51.816;8.662;2023-10-31T15:53:16;16.80;98.30
21169;DHT22;10742;51.816;8.662;2023-10-31T15:56:20;16.80;98.30
21169;DHT22;10742;51.816;8.662;2023-10-31T15:59:24;16.70;98.30
21169;DHT22;10742;51.816;8.662;2023-10-31T16:02:27;16.70;98.30
21169;DHT22;10742;51.816;8.662;2023-10-31T16:05:31;16.60;98.30
21169;DHT22;10742;51.816;8.662;2023-10-31T16:08:37;16.60;98.30
21169;DHT22;10742;51.816;8.662;2023-10-31T16:11:42;16.50;98.30
21169;DHT22;10742;51.816;8.662;2023-10-31T16:14:48;16.50;98.30
21169;DHT22;10742;51.816;8.662;2023-10-31T16:17:52;16.50;98.50
21169;DHT22;10742;51.816;8.662;2023-10-31T16:20:55;16.40;98.70
21169;DHT22;10742;51.816;8.662;2023-10-31T16:23:59;16.40;99.00
21169;DHT22;10742;51.816;8.662;2023-10-31T16:27:03;16.40;98.90
21169;DHT22;10742;51.816;8.662;2023-10-31T16:30:06;16.50;98.80
21169;DHT22;10742;51.816;8.662;2023-10-31T16:33:11;16.50;98.60
21169;DHT22;10742;51.816;8.662;2023-10-31T16:36:16;16.40;98.50
21169;DHT22;10742;51.816;8.662;2023-10-31T16:39:20;16.40;98.50
21169;DHT22;10742;51.816;8.662;2023-10-31T16:42:24;16.40;98.40
21169;DHT22;10742;51.816;8.662;2023-10-31T16:45:35;16.40;98.40
21169;DHT22;10742;51.816;8.662;2023-10-31T16:48:38;16.30;98.40
21169;DHT22;10742;51.816;8.662;2023-10-31T16:51:42;16.20;98.30
21169;DHT22;10742;51.816;8.662;2023-10-31T16:54:46;16.20;98.40
21169;DHT22;10742;51.816;8.662;2023-10-31T16:57:50;16.20;98.40
21169;DHT22;10742;51.816;8.662;2023-10-31T17:00:54;16.10;98.40
21169;DHT22;10742;51.816;8.662;2023-10-31T17:03:57;16.00;98.50
21169;DHT22;10742;51.816;8.662;2023-10-31T17:07:01;16.00;98.50
21169;DHT22;10742;51.816;8.662;2023-10-31T17:10:06;15.90;98.50
21169;DHT22;10742;51.816;8.662;2023-10-31T17:13:10;15.90;98.50
21169;DHT22;10742;51.816;8.662;2023-10-31T17:16:14;15.80;98.50
21169;DHT22;10742;51.816;8.662;2023-10-31T17:19:18;15.80;98.50
21169;DHT22;10742;51.816;8.662;2023-10-31T17:22:22;15.70;98.50
21169;DHT22;10742;51.816;8.662;2023-10-31T17:25:26;15.70;98.60
21169;DHT22;10742;51.816;8.662;2023-10-31T17:28:30;15.60;98.60
21169;DHT22;10742;51.816;8.662;2023-10-31T17:31:38;15.60;98.70
21169;DHT22;10742;51.816;8.662;2023-10-31T17:34:42;15.50;98.70
21169;DHT22;10742;51.816;8.662;2023-10-31T17:37:46;15.50;98.80
21169;DHT22;10742;51.816;8.662;2023-10-31T17:40:49;15.50;98.80
21169;DHT22;10742;51.816;8.662;2023-10-31T17:43:53;15.50;98.90
21169;DHT22;10742;51.816;8.662;2023-10-31T17:46:57;15.40;98.90
21169;DHT22;10742;51.816;8.662;2023-10-31T17:50:00;15.40;98.90
21169;DHT22;10742;51.816;8.662;2023-10-31T17:53:04;15.40;98.90
21169;DHT22;10742;51.816;8.662;2023-10-31T17:56:08;15.40;98.90
21169;DHT22;10742;51.816;8.662;2023-10-31T17:59:11;15.40;98.90
21169;DHT22;10742;51.816;8.662;2023-10-31T18:02:15;15.30;98.90
21169;DHT22;10742;51.816;8.662;2023-10-31T18:05:19;15.30;98.90
21169;DHT22;10742;51.816;8.662;2023-10-31T18:08:22;15.30;98.90
21169;DHT22;10742;51.816;8.662;2023-10-31T18:11:26;15.20;98.90
21169;DHT22;10742;51.816;8.662;2023-10-31T18:14:30;15.20;99.00
21169;DHT22;10742;51.816;8.662;2023-10-31T18:17:33;15.20;99.00
21169;DHT22;10742;51.816;8.662;2023-10-31T18:20:37;15.10;99.00
21169;DHT22;10742;51.816;8.662;2023-10-31T18:23:41;15.10;99.00
21169;DHT22;10742;51.816;8.662;2023-10-31T18:26:44;15.10;99.10
21169;DHT22;10742;51.816;8.662;2023-10-31T18:29:51;15.00;99.10
21169;DHT22;10742;51.816;8.662;2023-10-31T18:32:55;15.00;99.20
21169;DHT22;10742;51.816;8.662;2023-10-31T18:35:58;14.90;99.20
21169;DHT22;10742;51.816;8.662;2023-10-31T18:39:02;14.90;99.30
21169;DHT22;10742;51.816;8.662;2023-10-31T18:42:06;14.90;99.40
21169;DHT22;10742;51.816;8.662;2023-10-31T18:45:11;14.90;99.50
21169;DHT22;10742;51.816;8.662;2023-10-31T18:48:17;14.90;99.60
21169;DHT22;10742;51.816;8.662;2023-10-31T18:51:21;14.90;99.60
21169;DHT22;10742;51.816;8.662;2023-10-31T18:54:24;14.90;99.70
21169;DHT22;10742;51.816;8.662;2023-10-31T18:57:28;14.90;99.80
21169;DHT22;10742;51.816;8.662;2023-10-31T19:00:34;14.90;99.80
21169;DHT22;10742;51.816;8.662;2023-10-31T19:03:38;14.90;99.90
21169;DHT22;10742;51.816;8.662;2023-10-31T19:06:42;14.90;99.90
21169;DHT22;10742;51.816;8.662;2023-10-31T19:09:46;14.90;99.90
21169;DHT22;10742;51.816;8.662;2023-10-31T19:12:50;14.90;99.90
21169;DHT22;10742;51.816;8.662;2023-10-31T19:15:54;14.90;99.90
21169;DHT22;10742;51.816;8.662;2023-10-31T19:18:58;14.90;99.90
21169;DHT22;10742;51.816;8.662;2023-10-31T19:22:02;14.90;99.90
21169;DHT22;10742;51.816;8.662;2023-10-31T19:25:06;14.90;99.90
21169;DHT22;10742;51.816;8.662;2023-10-31T19:28:10;14.90;99.90
21169;DHT22;10742;51.816;8.662;2023-10-31T19:31:14;14.90;99.90
21169;DHT22;10742;51.816;8.662;2023-10-31T19:34:18;14.90;99.90
21169;DHT22;10742;51.816;8.662;2023-10-31T19:37:22;15.00;99.90